SJX666 RCTP-RJSA
Flight info
| Callsign | SJX666 |
|---|---|
| Flight time | 3h 5m |
| Altitude | 39000 |
| Route | MOLKA1A MOLKA M750 MADOG/N0457F410 B597 SUC V53 KTE V38 KMC Y381 GOLDO Y19 MRE |
| Aircraft | A339/H-SADE1E2E3GHIJ3J5M1P2RWXY/LB2D1 |
Departure
| Time | 2026-04-18 10:36 |
|---|---|
| Airport | Taiwan Taoyuan International Airport (RCTP) |
Arrival
| Time | 2026-04-18 13:41 |
|---|---|
| Airport | Aomori Airport (RJSA) |
| Time | Latitude | Longitude | Altitude | Speed | Heading |
|---|---|---|---|---|---|
| 2026-04-18 10:16 | 25.07874 | 121.23779 | 125 ft | 0 kts | 320° |
| 2026-04-18 10:24 | 25.07871 | 121.23782 | 125 ft | 2 kts | 320° |
| 2026-04-18 10:24 | 25.07861 | 121.23790 | 125 ft | 2 kts | 319° |
| 2026-04-18 10:24 | 25.07847 | 121.23803 | 125 ft | 2 kts | 320° |
| 2026-04-18 10:24 | 25.07835 | 121.23814 | 125 ft | 2 kts | 320° |
| 2026-04-18 10:25 | 25.07824 | 121.23824 | 125 ft | 1 kts | 320° |
| 2026-04-18 10:25 | 25.07817 | 121.23831 | 125 ft | 2 kts | 314° |
| 2026-04-18 10:25 | 25.07808 | 121.23844 | 125 ft | 2 kts | 295° |
| 2026-04-18 10:25 | 25.07803 | 121.23859 | 125 ft | 2 kts | 279° |
| 2026-04-18 10:26 | 25.07802 | 121.23875 | 125 ft | 2 kts | 264° |
| 2026-04-18 10:26 | 25.07805 | 121.23892 | 125 ft | 2 kts | 248° |
| 2026-04-18 10:26 | 25.07812 | 121.23906 | 125 ft | 1 kts | 232° |
| 2026-04-18 10:26 | 25.07816 | 121.23911 | 125 ft | 0 kts | 229° |
| 2026-04-18 10:27 | 25.07816 | 121.23912 | 125 ft | 0 kts | 229° |
| 2026-04-18 10:30 | 25.07809 | 121.23902 | 125 ft | 4 kts | 229° |
| 2026-04-18 10:30 | 25.07771 | 121.23855 | 125 ft | 11 kts | 229° |
| 2026-04-18 10:30 | 25.07704 | 121.23769 | 125 ft | 17 kts | 229° |
| 2026-04-18 10:31 | 25.07638 | 121.23692 | 125 ft | 9 kts | 208° |
| 2026-04-18 10:31 | 25.07568 | 121.23714 | 125 ft | 12 kts | 141° |
| 2026-04-18 10:31 | 25.07495 | 121.23773 | 125 ft | 13 kts | 166° |
| 2026-04-18 10:31 | 25.07413 | 121.23720 | 125 ft | 16 kts | 229° |
| 2026-04-18 10:32 | 25.07327 | 121.23612 | 125 ft | 20 kts | 229° |
| 2026-04-18 10:32 | 25.07228 | 121.23485 | 125 ft | 23 kts | 229° |
| 2026-04-18 10:32 | 25.07117 | 121.23344 | 125 ft | 23 kts | 229° |
| 2026-04-18 10:32 | 25.07011 | 121.23207 | 125 ft | 23 kts | 229° |
| 2026-04-18 10:33 | 25.06905 | 121.23074 | 125 ft | 22 kts | 228° |
| 2026-04-18 10:33 | 25.06803 | 121.22944 | 124 ft | 22 kts | 229° |
| 2026-04-18 10:33 | 25.06694 | 121.22806 | 124 ft | 24 kts | 229° |
| 2026-04-18 10:33 | 25.06577 | 121.22658 | 124 ft | 26 kts | 229° |
| 2026-04-18 10:34 | 25.06453 | 121.22500 | 125 ft | 27 kts | 229° |
| 2026-04-18 10:34 | 25.06348 | 121.22364 | 125 ft | 16 kts | 229° |
| 2026-04-18 10:34 | 25.06284 | 121.22321 | 125 ft | 8 kts | 169° |
| 2026-04-18 10:34 | 25.06231 | 121.22360 | 125 ft | 9 kts | 142° |
| 2026-04-18 10:35 | 25.06178 | 121.22412 | 124 ft | 10 kts | 133° |
| 2026-04-18 10:35 | 25.06176 | 121.22459 | 125 ft | 7 kts | 63° |
| 2026-04-18 10:35 | 25.06270 | 121.22587 | 125 ft | 49 kts | 49° |
| 2026-04-18 10:35 | 25.06633 | 121.23049 | 125 ft | 109 kts | 48° |
| 2026-04-18 10:36 | 25.07253 | 121.23833 | 137 ft | 156 kts | 51° |
| 2026-04-18 10:36 | 25.07989 | 121.24780 | 590 ft | 163 kts | 48° |
| 2026-04-18 10:36 | 25.08759 | 121.25698 | 1168 ft | 166 kts | 46° |
| 2026-04-18 10:36 | 25.09544 | 121.26630 | 1787 ft | 168 kts | 47° |
| 2026-04-18 10:37 | 25.10292 | 121.27629 | 2253 ft | 174 kts | 51° |
| 2026-04-18 10:37 | 25.11081 | 121.28738 | 2549 ft | 190 kts | 51° |
| 2026-04-18 10:37 | 25.11965 | 121.29888 | 2845 ft | 206 kts | 45° |
| 2026-04-18 10:37 | 25.12991 | 121.31093 | 3138 ft | 223 kts | 45° |
| 2026-04-18 10:38 | 25.14108 | 121.32377 | 3451 ft | 240 kts | 45° |
| 2026-04-18 10:38 | 25.15314 | 121.33758 | 3777 ft | 258 kts | 45° |
| 2026-04-18 10:38 | 25.16603 | 121.35234 | 4142 ft | 274 kts | 45° |
| 2026-04-18 10:38 | 25.17945 | 121.36776 | 4752 ft | 281 kts | 45° |
| 2026-04-18 10:39 | 25.19298 | 121.38335 | 5421 ft | 286 kts | 45° |
| 2026-04-18 10:39 | 25.20691 | 121.39939 | 6083 ft | 292 kts | 45° |
| 2026-04-18 10:39 | 25.22109 | 121.41573 | 6742 ft | 297 kts | 45° |
| 2026-04-18 10:39 | 25.23535 | 121.43218 | 7434 ft | 301 kts | 45° |
| 2026-04-18 10:40 | 25.24971 | 121.44878 | 8161 ft | 303 kts | 44° |
| 2026-04-18 10:40 | 25.26435 | 121.46568 | 8890 ft | 306 kts | 44° |
| 2026-04-18 10:40 | 25.27910 | 121.48270 | 9590 ft | 309 kts | 45° |
| 2026-04-18 10:40 | 25.29187 | 121.50174 | 10227 ft | 315 kts | 60° |
| 2026-04-18 10:41 | 25.29992 | 121.52490 | 10640 ft | 330 kts | 77° |
| 2026-04-18 10:41 | 25.30184 | 121.55070 | 10957 ft | 346 kts | 92° |
| 2026-04-18 10:41 | 25.30102 | 121.57745 | 11424 ft | 356 kts | 88° |
| 2026-04-18 10:41 | 25.30393 | 121.60487 | 12057 ft | 360 kts | 79° |
| 2026-04-18 10:42 | 25.30836 | 121.63206 | 12705 ft | 363 kts | 77° |
| 2026-04-18 10:42 | 25.31333 | 121.65942 | 13327 ft | 367 kts | 77° |
| 2026-04-18 10:42 | 25.31857 | 121.68702 | 13945 ft | 370 kts | 77° |
| 2026-04-18 10:42 | 25.32396 | 121.71485 | 14551 ft | 373 kts | 77° |
| 2026-04-18 10:43 | 25.32944 | 121.74304 | 15166 ft | 377 kts | 77° |
| 2026-04-18 10:43 | 25.33499 | 121.77152 | 15739 ft | 381 kts | 77° |
| 2026-04-18 10:43 | 25.34060 | 121.80037 | 16297 ft | 386 kts | 77° |
| 2026-04-18 10:43 | 25.34623 | 121.82941 | 16888 ft | 390 kts | 77° |
| 2026-04-18 10:44 | 25.35192 | 121.85869 | 17462 ft | 394 kts | 77° |
| 2026-04-18 10:44 | 25.35765 | 121.88824 | 18023 ft | 398 kts | 77° |
| 2026-04-18 10:44 | 25.36350 | 121.91846 | 18587 ft | 401 kts | 77° |
| 2026-04-18 10:44 | 25.36932 | 121.94850 | 19140 ft | 405 kts | 77° |
| 2026-04-18 10:45 | 25.37521 | 121.97901 | 19695 ft | 408 kts | 77° |
| 2026-04-18 10:45 | 25.38111 | 122.00960 | 20222 ft | 411 kts | 78° |
| 2026-04-18 10:45 | 25.38711 | 122.04073 | 20740 ft | 415 kts | 78° |
| 2026-04-18 10:45 | 25.39310 | 122.07185 | 21242 ft | 418 kts | 78° |
| 2026-04-18 10:46 | 25.39915 | 122.10338 | 21741 ft | 421 kts | 78° |
| 2026-04-18 10:46 | 25.40526 | 122.13525 | 22224 ft | 425 kts | 78° |
| 2026-04-18 10:46 | 25.41132 | 122.16686 | 22687 ft | 428 kts | 78° |
| 2026-04-18 10:46 | 25.41812 | 122.19901 | 23147 ft | 431 kts | 75° |
| 2026-04-18 10:47 | 25.42685 | 122.23106 | 23572 ft | 435 kts | 71° |
| 2026-04-18 10:47 | 25.43714 | 122.26260 | 23981 ft | 440 kts | 69° |
| 2026-04-18 10:47 | 25.44815 | 122.29507 | 24397 ft | 444 kts | 69° |
| 2026-04-18 10:47 | 25.45933 | 122.32792 | 24806 ft | 449 kts | 69° |
| 2026-04-18 10:48 | 25.47040 | 122.36056 | 25212 ft | 452 kts | 69° |
| 2026-04-18 10:48 | 25.48135 | 122.39304 | 25613 ft | 456 kts | 69° |
| 2026-04-18 10:48 | 25.49254 | 122.42630 | 25999 ft | 460 kts | 69° |
| 2026-04-18 10:48 | 25.50381 | 122.45988 | 26364 ft | 464 kts | 69° |
| 2026-04-18 10:49 | 25.51497 | 122.49317 | 26727 ft | 468 kts | 69° |
| 2026-04-18 10:49 | 25.52640 | 122.52740 | 27110 ft | 471 kts | 69° |
| 2026-04-18 10:49 | 25.53778 | 122.56141 | 27444 ft | 475 kts | 69° |
| 2026-04-18 10:49 | 25.54913 | 122.59544 | 27768 ft | 479 kts | 69° |
| 2026-04-18 10:50 | 25.56069 | 122.63010 | 28119 ft | 483 kts | 69° |
| 2026-04-18 10:50 | 25.57235 | 122.66508 | 28455 ft | 486 kts | 70° |
| 2026-04-18 10:50 | 25.58411 | 122.70036 | 28762 ft | 490 kts | 70° |
| 2026-04-18 10:50 | 25.59596 | 122.73601 | 29067 ft | 493 kts | 70° |
| 2026-04-18 10:51 | 25.60790 | 122.77187 | 29359 ft | 496 kts | 70° |
| 2026-04-18 10:51 | 25.61978 | 122.80774 | 29653 ft | 500 kts | 70° |
| 2026-04-18 10:51 | 25.63178 | 122.84390 | 29945 ft | 502 kts | 70° |
| 2026-04-18 10:51 | 25.64374 | 122.87990 | 30230 ft | 505 kts | 70° |
| 2026-04-18 10:52 | 25.65602 | 122.91644 | 30492 ft | 508 kts | 69° |
| 2026-04-18 10:52 | 25.66846 | 122.95316 | 30764 ft | 511 kts | 69° |
| 2026-04-18 10:52 | 25.68099 | 122.99024 | 31039 ft | 514 kts | 70° |
| 2026-04-18 10:52 | 25.69360 | 123.02765 | 31320 ft | 516 kts | 70° |
| 2026-04-18 10:53 | 25.70615 | 123.06493 | 31581 ft | 519 kts | 70° |
| 2026-04-18 10:53 | 25.71873 | 123.10235 | 31837 ft | 521 kts | 70° |
| 2026-04-18 10:53 | 25.73131 | 123.13982 | 32085 ft | 524 kts | 70° |
| 2026-04-18 10:53 | 25.74394 | 123.17747 | 32333 ft | 526 kts | 70° |
| 2026-04-18 10:54 | 25.75667 | 123.21551 | 32586 ft | 528 kts | 70° |
| 2026-04-18 10:54 | 25.76962 | 123.25417 | 32869 ft | 531 kts | 70° |
| 2026-04-18 10:54 | 25.78236 | 123.29224 | 33128 ft | 534 kts | 70° |
| 2026-04-18 10:54 | 25.79524 | 123.33080 | 33405 ft | 536 kts | 70° |
| 2026-04-18 10:55 | 25.80831 | 123.36994 | 33684 ft | 538 kts | 70° |
| 2026-04-18 10:55 | 25.82128 | 123.40885 | 33987 ft | 540 kts | 70° |
| 2026-04-18 10:55 | 25.83428 | 123.44790 | 34384 ft | 539 kts | 70° |
| 2026-04-18 10:55 | 25.84723 | 123.48679 | 34841 ft | 537 kts | 69° |
| 2026-04-18 10:56 | 25.86266 | 123.52419 | 35243 ft | 537 kts | 60° |
| 2026-04-18 10:56 | 25.88268 | 123.55881 | 35612 ft | 535 kts | 51° |
| 2026-04-18 10:56 | 25.90713 | 123.58993 | 35932 ft | 532 kts | 41° |
| 2026-04-18 10:56 | 25.93529 | 123.61664 | 36209 ft | 528 kts | 32° |
| 2026-04-18 10:57 | 25.96620 | 123.63832 | 36486 ft | 523 kts | 22° |
| 2026-04-18 10:57 | 25.99885 | 123.65597 | 36776 ft | 520 kts | 19° |
| 2026-04-18 10:57 | 26.03163 | 123.67240 | 37002 ft | 521 kts | 19° |
| 2026-04-18 10:57 | 26.06485 | 123.68894 | 37204 ft | 523 kts | 19° |
| 2026-04-18 10:58 | 26.09805 | 123.70574 | 37439 ft | 524 kts | 19° |
| 2026-04-18 10:58 | 26.13171 | 123.72300 | 37625 ft | 526 kts | 20° |
| 2026-04-18 10:58 | 26.16563 | 123.74060 | 37797 ft | 527 kts | 20° |
| 2026-04-18 10:58 | 26.19904 | 123.75806 | 37948 ft | 529 kts | 20° |
| 2026-04-18 10:59 | 26.23228 | 123.77548 | 38100 ft | 531 kts | 20° |
| 2026-04-18 10:59 | 26.26583 | 123.79309 | 38291 ft | 533 kts | 20° |
| 2026-04-18 10:59 | 26.29952 | 123.81081 | 38511 ft | 533 kts | 20° |
| 2026-04-18 10:59 | 26.33287 | 123.82836 | 38720 ft | 534 kts | 20° |
| 2026-04-18 11:00 | 26.36651 | 123.84605 | 38938 ft | 534 kts | 20° |
| 2026-04-18 11:00 | 26.43391 | 123.88151 | 38977 ft | 536 kts | 20° |
| 2026-04-18 11:01 | 26.50154 | 123.91716 | 38978 ft | 536 kts | 20° |
| 2026-04-18 11:01 | 26.56870 | 123.95265 | 38979 ft | 538 kts | 21° |
| 2026-04-18 11:02 | 26.66393 | 124.02016 | 38983 ft | 547 kts | 36° |
| 2026-04-18 11:02 | 26.71912 | 124.07926 | 38983 ft | 550 kts | 47° |
| 2026-04-18 11:03 | 26.76818 | 124.14510 | 38985 ft | 551 kts | 49° |
| 2026-04-18 11:03 | 26.81661 | 124.21138 | 38984 ft | 551 kts | 49° |
| 2026-04-18 11:04 | 26.86559 | 124.27756 | 38979 ft | 551 kts | 49° |
| 2026-04-18 11:04 | 26.91456 | 124.34341 | 38979 ft | 551 kts | 49° |
| 2026-04-18 11:05 | 26.96354 | 124.40934 | 38979 ft | 551 kts | 49° |
| 2026-04-18 11:05 | 27.01260 | 124.47548 | 38977 ft | 551 kts | 49° |
| 2026-04-18 11:06 | 27.06159 | 124.54163 | 38979 ft | 552 kts | 49° |
| 2026-04-18 11:06 | 27.11057 | 124.60783 | 38974 ft | 552 kts | 49° |
| 2026-04-18 11:07 | 27.14316 | 124.65198 | 38977 ft | 552 kts | 49° |
| 2026-04-18 11:07 | 27.20813 | 124.74012 | 38973 ft | 552 kts | 49° |
| 2026-04-18 11:08 | 27.25708 | 124.80658 | 38973 ft | 553 kts | 49° |
| 2026-04-18 11:08 | 27.30608 | 124.87331 | 38971 ft | 552 kts | 49° |
| 2026-04-18 11:09 | 27.35476 | 124.93964 | 38969 ft | 552 kts | 49° |
| 2026-04-18 11:09 | 27.40341 | 125.00600 | 38968 ft | 552 kts | 49° |
| 2026-04-18 11:10 | 27.45281 | 125.07268 | 38968 ft | 552 kts | 48° |
| 2026-04-18 11:10 | 27.50195 | 125.13889 | 38965 ft | 552 kts | 48° |
| 2026-04-18 11:11 | 27.55108 | 125.20525 | 38968 ft | 552 kts | 49° |
| 2026-04-18 11:11 | 27.60015 | 125.27168 | 38965 ft | 552 kts | 49° |
| 2026-04-18 11:12 | 27.64900 | 125.33795 | 38970 ft | 552 kts | 49° |
| 2026-04-18 11:12 | 27.69836 | 125.40501 | 38969 ft | 553 kts | 49° |
| 2026-04-18 11:13 | 27.74712 | 125.47134 | 38973 ft | 554 kts | 49° |
| 2026-04-18 11:13 | 27.79636 | 125.53847 | 38975 ft | 553 kts | 48° |
| 2026-04-18 11:14 | 27.84533 | 125.60529 | 38976 ft | 553 kts | 49° |
| 2026-04-18 11:14 | 27.87799 | 125.64990 | 38971 ft | 554 kts | 49° |
| 2026-04-18 11:15 | 27.94338 | 125.73940 | 38974 ft | 554 kts | 49° |
| 2026-04-18 11:15 | 27.99267 | 125.80697 | 38982 ft | 554 kts | 49° |
| 2026-04-18 11:16 | 28.04169 | 125.87432 | 38987 ft | 556 kts | 49° |
| 2026-04-18 11:16 | 28.09045 | 125.94136 | 38985 ft | 556 kts | 49° |
| 2026-04-18 11:17 | 28.13958 | 126.00906 | 38987 ft | 557 kts | 49° |
| 2026-04-18 11:17 | 28.18893 | 126.07723 | 38983 ft | 556 kts | 49° |
| 2026-04-18 11:18 | 28.23786 | 126.14482 | 38980 ft | 556 kts | 49° |
| 2026-04-18 11:18 | 28.28676 | 126.21250 | 38973 ft | 556 kts | 49° |
| 2026-04-18 11:19 | 28.33578 | 126.28046 | 38972 ft | 556 kts | 49° |
| 2026-04-18 11:19 | 28.38454 | 126.34819 | 38970 ft | 556 kts | 49° |
| 2026-04-18 11:20 | 28.43362 | 126.41648 | 38970 ft | 556 kts | 49° |
| 2026-04-18 11:20 | 28.48242 | 126.48448 | 38969 ft | 556 kts | 49° |
| 2026-04-18 11:21 | 28.53126 | 126.55258 | 38969 ft | 556 kts | 49° |
| 2026-04-18 11:21 | 28.58007 | 126.62085 | 38968 ft | 556 kts | 49° |
| 2026-04-18 11:22 | 28.62884 | 126.68912 | 38963 ft | 556 kts | 49° |
| 2026-04-18 11:22 | 28.67779 | 126.75777 | 38968 ft | 556 kts | 49° |
| 2026-04-18 11:23 | 28.72656 | 126.82627 | 38968 ft | 556 kts | 49° |
| 2026-04-18 11:23 | 28.77504 | 126.89448 | 38964 ft | 557 kts | 49° |
| 2026-04-18 11:24 | 28.82372 | 126.96308 | 38964 ft | 557 kts | 50° |
| 2026-04-18 11:24 | 28.87250 | 127.03198 | 38967 ft | 558 kts | 49° |
| 2026-04-18 11:25 | 28.92142 | 127.10115 | 38968 ft | 557 kts | 49° |
| 2026-04-18 11:25 | 28.96969 | 127.16952 | 38966 ft | 557 kts | 49° |
| 2026-04-18 11:26 | 29.01815 | 127.23826 | 38967 ft | 556 kts | 49° |
| 2026-04-18 11:26 | 29.06660 | 127.30708 | 38970 ft | 556 kts | 50° |
| 2026-04-18 11:27 | 29.11518 | 127.37624 | 38961 ft | 556 kts | 50° |
| 2026-04-18 11:27 | 29.16334 | 127.44494 | 38963 ft | 556 kts | 49° |
| 2026-04-18 11:28 | 29.21174 | 127.51405 | 38959 ft | 557 kts | 50° |
| 2026-04-18 11:28 | 29.26003 | 127.58315 | 38952 ft | 557 kts | 49° |
| 2026-04-18 11:29 | 29.30825 | 127.65224 | 38948 ft | 557 kts | 50° |
| 2026-04-18 11:29 | 29.35663 | 127.72166 | 38945 ft | 558 kts | 50° |
| 2026-04-18 11:30 | 29.40519 | 127.79146 | 38944 ft | 559 kts | 50° |
| 2026-04-18 11:30 | 29.45339 | 127.86092 | 38936 ft | 559 kts | 50° |
| 2026-04-18 11:31 | 29.50183 | 127.93082 | 38933 ft | 558 kts | 50° |
| 2026-04-18 11:31 | 29.54994 | 128.00035 | 38930 ft | 557 kts | 50° |
| 2026-04-18 11:32 | 29.59808 | 128.06992 | 38928 ft | 557 kts | 49° |
| 2026-04-18 11:32 | 29.64626 | 128.13965 | 38928 ft | 557 kts | 50° |
| 2026-04-18 11:33 | 29.69418 | 128.20920 | 38929 ft | 558 kts | 50° |
| 2026-04-18 11:33 | 29.74219 | 128.27902 | 38928 ft | 557 kts | 50° |
| 2026-04-18 11:34 | 29.79017 | 128.34885 | 38928 ft | 558 kts | 49° |
| 2026-04-18 11:34 | 29.83846 | 128.41925 | 38928 ft | 559 kts | 50° |
| 2026-04-18 11:35 | 29.88612 | 128.48891 | 38928 ft | 559 kts | 49° |
| 2026-04-18 11:35 | 29.93414 | 128.55917 | 38928 ft | 559 kts | 50° |
| 2026-04-18 11:36 | 29.98220 | 128.62967 | 38928 ft | 559 kts | 50° |
| 2026-04-18 11:36 | 30.03007 | 128.69997 | 38929 ft | 559 kts | 50° |
| 2026-04-18 11:37 | 30.07822 | 128.77080 | 38932 ft | 560 kts | 50° |
| 2026-04-18 11:37 | 30.12608 | 128.84139 | 38936 ft | 560 kts | 50° |
| 2026-04-18 11:38 | 30.17392 | 128.91200 | 38935 ft | 560 kts | 50° |
| 2026-04-18 11:38 | 30.22184 | 128.98285 | 38940 ft | 560 kts | 50° |
| 2026-04-18 11:39 | 30.26966 | 129.05373 | 38942 ft | 560 kts | 50° |
| 2026-04-18 11:39 | 30.31729 | 129.12440 | 38947 ft | 560 kts | 50° |
| 2026-04-18 11:40 | 30.36534 | 129.19588 | 38955 ft | 561 kts | 50° |
| 2026-04-18 11:40 | 30.41289 | 129.26674 | 38957 ft | 560 kts | 50° |
| 2026-04-18 11:41 | 30.46061 | 129.33794 | 38958 ft | 560 kts | 50° |
| 2026-04-18 11:41 | 30.50844 | 129.40944 | 38955 ft | 561 kts | 50° |
| 2026-04-18 11:42 | 30.55611 | 129.48084 | 38961 ft | 561 kts | 50° |
| 2026-04-18 11:42 | 30.60386 | 129.55250 | 38960 ft | 561 kts | 50° |
| 2026-04-18 11:43 | 30.65146 | 129.62404 | 38960 ft | 562 kts | 50° |
| 2026-04-18 11:43 | 30.69931 | 129.69609 | 38956 ft | 562 kts | 50° |
| 2026-04-18 11:44 | 30.74678 | 129.76772 | 38963 ft | 562 kts | 50° |
| 2026-04-18 11:44 | 30.79428 | 129.83952 | 38976 ft | 562 kts | 50° |
| 2026-04-18 11:45 | 30.84154 | 129.91197 | 38968 ft | 562 kts | 53° |
| 2026-04-18 11:45 | 30.88402 | 129.98825 | 38972 ft | 564 kts | 57° |
| 2026-04-18 11:46 | 30.92486 | 130.06578 | 38990 ft | 565 kts | 57° |
| 2026-04-18 11:46 | 30.96604 | 130.14395 | 38992 ft | 565 kts | 57° |
| 2026-04-18 11:47 | 31.00716 | 130.22179 | 38998 ft | 565 kts | 57° |
| 2026-04-18 11:47 | 31.04807 | 130.29921 | 39003 ft | 565 kts | 57° |
| 2026-04-18 11:48 | 31.08909 | 130.37694 | 39005 ft | 564 kts | 57° |
| 2026-04-18 11:48 | 31.13008 | 130.45482 | 39005 ft | 564 kts | 57° |
| 2026-04-18 11:49 | 31.17094 | 130.53253 | 39012 ft | 564 kts | 57° |
| 2026-04-18 11:49 | 31.21171 | 130.61037 | 39010 ft | 563 kts | 57° |
| 2026-04-18 11:50 | 31.25250 | 130.68825 | 39008 ft | 563 kts | 58° |
| 2026-04-18 11:50 | 31.29305 | 130.76593 | 39020 ft | 563 kts | 57° |
| 2026-04-18 11:51 | 31.33384 | 130.84421 | 39027 ft | 562 kts | 58° |
| 2026-04-18 11:51 | 31.37444 | 130.92223 | 39026 ft | 562 kts | 58° |
| 2026-04-18 11:52 | 31.41473 | 130.99986 | 39026 ft | 562 kts | 58° |
| 2026-04-18 11:52 | 31.45536 | 131.07831 | 39034 ft | 562 kts | 58° |
| 2026-04-18 11:53 | 31.49580 | 131.15652 | 39025 ft | 562 kts | 58° |
| 2026-04-18 11:53 | 31.53618 | 131.23477 | 39036 ft | 562 kts | 58° |
| 2026-04-18 11:54 | 31.57637 | 131.31288 | 39038 ft | 562 kts | 58° |
| 2026-04-18 11:54 | 31.61653 | 131.39101 | 39035 ft | 562 kts | 57° |
| 2026-04-18 11:55 | 31.65697 | 131.46994 | 39041 ft | 562 kts | 58° |
| 2026-04-18 11:55 | 31.69702 | 131.54835 | 39036 ft | 562 kts | 57° |
| 2026-04-18 11:56 | 31.73715 | 131.62705 | 39038 ft | 563 kts | 57° |
| 2026-04-18 11:56 | 31.77700 | 131.70525 | 39030 ft | 563 kts | 58° |
| 2026-04-18 11:57 | 31.81731 | 131.78461 | 39033 ft | 564 kts | 58° |
| 2026-04-18 11:57 | 31.85734 | 131.86359 | 39033 ft | 564 kts | 58° |
| 2026-04-18 11:58 | 31.89720 | 131.94240 | 39033 ft | 564 kts | 58° |
| 2026-04-18 11:58 | 31.93716 | 132.02155 | 39034 ft | 564 kts | 58° |
| 2026-04-18 11:59 | 31.97696 | 132.10053 | 39028 ft | 564 kts | 58° |
| 2026-04-18 11:59 | 32.01711 | 132.18034 | 39043 ft | 565 kts | 58° |
| 2026-04-18 12:00 | 32.05669 | 132.25934 | 39038 ft | 564 kts | 58° |
| 2026-04-18 12:00 | 32.09816 | 132.33783 | 39035 ft | 563 kts | 53° |
| 2026-04-18 12:01 | 32.17457 | 132.44237 | 39045 ft | 558 kts | 38° |
| 2026-04-18 12:02 | 32.23334 | 132.50067 | 39041 ft | 554 kts | 32° |
| 2026-04-18 12:02 | 32.29381 | 132.55669 | 39043 ft | 554 kts | 32° |
| 2026-04-18 12:03 | 32.35452 | 132.61357 | 39058 ft | 555 kts | 33° |
| 2026-04-18 12:03 | 32.41474 | 132.67067 | 39046 ft | 555 kts | 33° |
| 2026-04-18 12:04 | 32.47497 | 132.72795 | 39056 ft | 556 kts | 33° |
| 2026-04-18 12:04 | 32.53534 | 132.78554 | 39057 ft | 557 kts | 33° |
| 2026-04-18 12:05 | 32.59535 | 132.84280 | 39062 ft | 556 kts | 33° |
| 2026-04-18 12:05 | 32.65568 | 132.90048 | 39061 ft | 557 kts | 33° |
| 2026-04-18 12:06 | 32.71603 | 132.95836 | 39071 ft | 557 kts | 33° |
| 2026-04-18 12:06 | 32.77638 | 133.01476 | 39070 ft | 554 kts | 30° |
| 2026-04-18 12:07 | 32.83880 | 133.06877 | 39067 ft | 553 kts | 29° |
| 2026-04-18 12:07 | 32.90108 | 133.12230 | 39068 ft | 554 kts | 29° |
| 2026-04-18 12:08 | 32.96300 | 133.17589 | 39070 ft | 554 kts | 29° |
| 2026-04-18 12:08 | 33.02558 | 133.23025 | 39073 ft | 556 kts | 29° |
| 2026-04-18 12:09 | 33.08786 | 133.28455 | 39068 ft | 555 kts | 29° |
| 2026-04-18 12:09 | 33.14990 | 133.33855 | 39061 ft | 555 kts | 29° |
| 2026-04-18 12:10 | 33.21238 | 133.39287 | 39073 ft | 555 kts | 29° |
| 2026-04-18 12:10 | 33.27456 | 133.44704 | 39058 ft | 556 kts | 29° |
| 2026-04-18 12:11 | 33.33709 | 133.50168 | 39058 ft | 556 kts | 29° |
| 2026-04-18 12:11 | 33.39944 | 133.55602 | 39059 ft | 557 kts | 29° |
| 2026-04-18 12:12 | 33.46190 | 133.61041 | 39063 ft | 556 kts | 29° |
| 2026-04-18 12:12 | 33.52538 | 133.66341 | 39059 ft | 552 kts | 24° |
| 2026-04-18 12:13 | 33.59181 | 133.70657 | 39072 ft | 540 kts | 15° |
| 2026-04-18 12:13 | 33.61320 | 133.71793 | 39076 ft | 539 kts | 14° |
| 2026-04-18 12:14 | 33.66732 | 133.74497 | 39079 ft | 539 kts | 13° |
| 2026-04-18 12:14 | 33.73667 | 133.77953 | 39094 ft | 538 kts | 13° |
| 2026-04-18 12:15 | 33.80580 | 133.81462 | 39100 ft | 541 kts | 14° |
| 2026-04-18 12:15 | 33.87528 | 133.85019 | 39104 ft | 543 kts | 13° |
| 2026-04-18 12:16 | 33.94438 | 133.88553 | 39095 ft | 540 kts | 13° |
| 2026-04-18 12:16 | 34.01386 | 133.92101 | 39089 ft | 542 kts | 13° |
| 2026-04-18 12:17 | 34.08379 | 133.95676 | 39093 ft | 543 kts | 13° |
| 2026-04-18 12:17 | 34.15277 | 133.99210 | 39086 ft | 541 kts | 13° |
| 2026-04-18 12:18 | 34.22177 | 134.03134 | 39082 ft | 552 kts | 20° |
| 2026-04-18 12:18 | 34.28670 | 134.07936 | 39075 ft | 557 kts | 25° |
| 2026-04-18 12:19 | 34.35178 | 134.13119 | 39076 ft | 558 kts | 26° |
| 2026-04-18 12:19 | 34.41635 | 134.18248 | 39074 ft | 557 kts | 25° |
| 2026-04-18 12:20 | 34.48162 | 134.23396 | 39074 ft | 555 kts | 25° |
| 2026-04-18 12:20 | 34.54660 | 134.28514 | 39074 ft | 556 kts | 25° |
| 2026-04-18 12:21 | 34.61154 | 134.33649 | 39071 ft | 555 kts | 25° |
| 2026-04-18 12:21 | 34.67611 | 134.38760 | 39070 ft | 555 kts | 24° |
| 2026-04-18 12:22 | 34.74099 | 134.43906 | 39068 ft | 557 kts | 25° |
| 2026-04-18 12:22 | 34.80389 | 134.49504 | 39067 ft | 560 kts | 30° |
| 2026-04-18 12:23 | 34.86559 | 134.55337 | 39070 ft | 560 kts | 30° |
| 2026-04-18 12:23 | 34.92713 | 134.61162 | 39067 ft | 558 kts | 30° |
| 2026-04-18 12:24 | 34.98825 | 134.66917 | 39064 ft | 560 kts | 30° |
| 2026-04-18 12:24 | 35.05003 | 134.72743 | 39075 ft | 560 kts | 31° |
| 2026-04-18 12:25 | 35.11192 | 134.78603 | 39079 ft | 559 kts | 31° |
| 2026-04-18 12:25 | 35.17342 | 134.84424 | 39081 ft | 559 kts | 31° |
| 2026-04-18 12:26 | 35.23458 | 134.90230 | 39092 ft | 559 kts | 30° |
| 2026-04-18 12:26 | 35.29577 | 134.96054 | 39103 ft | 557 kts | 30° |
| 2026-04-18 12:27 | 35.35708 | 135.01888 | 39085 ft | 557 kts | 31° |
| 2026-04-18 12:27 | 35.41814 | 135.07718 | 39102 ft | 557 kts | 30° |
| 2026-04-18 12:28 | 35.47789 | 135.13722 | 39090 ft | 562 kts | 36° |
| 2026-04-18 12:28 | 35.53265 | 135.20590 | 39091 ft | 565 kts | 42° |
| 2026-04-18 12:29 | 35.58505 | 135.27803 | 39094 ft | 565 kts | 43° |
| 2026-04-18 12:29 | 35.63721 | 135.35004 | 39086 ft | 566 kts | 42° |
| 2026-04-18 12:30 | 35.68967 | 135.42201 | 39080 ft | 566 kts | 42° |
| 2026-04-18 12:30 | 35.74184 | 135.49356 | 39092 ft | 565 kts | 41° |
| 2026-04-18 12:31 | 35.79438 | 135.56573 | 39084 ft | 565 kts | 41° |
| 2026-04-18 12:31 | 35.84681 | 135.63788 | 39097 ft | 566 kts | 42° |
| 2026-04-18 12:32 | 35.89908 | 135.70995 | 39077 ft | 567 kts | 43° |
| 2026-04-18 12:32 | 35.95139 | 135.78236 | 39085 ft | 567 kts | 43° |
| 2026-04-18 12:33 | 36.00369 | 135.85483 | 39099 ft | 568 kts | 43° |
| 2026-04-18 12:33 | 36.05621 | 135.92793 | 39087 ft | 567 kts | 43° |
| 2026-04-18 12:34 | 36.10827 | 136.00040 | 39113 ft | 566 kts | 42° |
| 2026-04-18 12:34 | 36.16051 | 136.07321 | 39129 ft | 565 kts | 42° |
| 2026-04-18 12:35 | 36.21249 | 136.14580 | 39097 ft | 565 kts | 42° |
| 2026-04-18 12:35 | 36.26444 | 136.21864 | 39088 ft | 562 kts | 42° |
| 2026-04-18 12:36 | 36.31621 | 136.29126 | 39105 ft | 563 kts | 42° |
| 2026-04-18 12:36 | 36.36778 | 136.36383 | 39108 ft | 564 kts | 42° |
| 2026-04-18 12:37 | 36.42108 | 136.43381 | 39153 ft | 557 kts | 36° |
| 2026-04-18 12:37 | 36.47733 | 136.49939 | 39082 ft | 554 kts | 35° |
| 2026-04-18 12:38 | 36.53399 | 136.56480 | 39122 ft | 555 kts | 35° |
| 2026-04-18 12:38 | 36.58986 | 136.62996 | 39136 ft | 554 kts | 36° |
| 2026-04-18 12:39 | 36.64638 | 136.69620 | 39113 ft | 554 kts | 36° |
| 2026-04-18 12:39 | 36.70197 | 136.76146 | 39129 ft | 554 kts | 36° |
| 2026-04-18 12:40 | 36.75800 | 136.82745 | 39118 ft | 553 kts | 36° |
| 2026-04-18 12:40 | 36.81365 | 136.89310 | 39104 ft | 553 kts | 36° |
| 2026-04-18 12:41 | 36.86962 | 136.95932 | 39116 ft | 552 kts | 36° |
| 2026-04-18 12:41 | 36.92509 | 137.02512 | 39138 ft | 553 kts | 36° |
| 2026-04-18 12:42 | 36.98074 | 137.09129 | 39134 ft | 552 kts | 36° |
| 2026-04-18 12:42 | 37.03656 | 137.15779 | 39131 ft | 552 kts | 36° |
| 2026-04-18 12:43 | 37.09170 | 137.22354 | 39131 ft | 552 kts | 36° |
| 2026-04-18 12:43 | 37.14746 | 137.29028 | 39134 ft | 552 kts | 36° |
| 2026-04-18 12:44 | 37.20246 | 137.35623 | 39133 ft | 551 kts | 36° |
| 2026-04-18 12:44 | 37.25775 | 137.42262 | 39136 ft | 550 kts | 36° |
| 2026-04-18 12:45 | 37.31309 | 137.48921 | 39144 ft | 550 kts | 36° |
| 2026-04-18 12:45 | 37.36778 | 137.55516 | 39137 ft | 550 kts | 36° |
| 2026-04-18 12:46 | 37.42291 | 137.62175 | 39137 ft | 551 kts | 36° |
| 2026-04-18 12:46 | 37.47809 | 137.68866 | 39135 ft | 550 kts | 36° |
| 2026-04-18 12:47 | 37.51279 | 137.73079 | 39146 ft | 550 kts | 37° |
| 2026-04-18 12:47 | 37.57269 | 137.80360 | 39146 ft | 550 kts | 36° |
| 2026-04-18 12:48 | 37.62740 | 137.87032 | 39124 ft | 548 kts | 36° |
| 2026-04-18 12:48 | 37.68185 | 137.93678 | 39144 ft | 548 kts | 36° |
| 2026-04-18 12:49 | 37.73648 | 138.00363 | 39141 ft | 547 kts | 36° |
| 2026-04-18 12:49 | 37.79120 | 138.07074 | 39128 ft | 547 kts | 36° |
| 2026-04-18 12:50 | 37.84534 | 138.13730 | 39125 ft | 546 kts | 36° |
| 2026-04-18 12:50 | 37.89967 | 138.20424 | 39121 ft | 545 kts | 36° |
| 2026-04-18 12:51 | 37.95405 | 138.27136 | 39119 ft | 545 kts | 36° |
| 2026-04-18 12:51 | 38.00784 | 138.33794 | 39130 ft | 543 kts | 36° |
| 2026-04-18 12:52 | 38.06324 | 138.40265 | 39122 ft | 536 kts | 30° |
| 2026-04-18 12:52 | 38.12279 | 138.45779 | 39124 ft | 529 kts | 23° |
| 2026-04-18 12:53 | 38.18459 | 138.50810 | 39122 ft | 527 kts | 22° |
| 2026-04-18 12:53 | 38.24609 | 138.55792 | 39123 ft | 527 kts | 22° |
| 2026-04-18 12:54 | 38.30763 | 138.60829 | 39120 ft | 527 kts | 22° |
| 2026-04-18 12:54 | 38.36901 | 138.65881 | 39121 ft | 527 kts | 23° |
| 2026-04-18 12:55 | 38.43081 | 138.70984 | 39117 ft | 527 kts | 23° |
| 2026-04-18 12:55 | 38.49181 | 138.76031 | 39127 ft | 527 kts | 23° |
| 2026-04-18 12:56 | 38.55301 | 138.81108 | 39136 ft | 526 kts | 23° |
| 2026-04-18 12:56 | 38.61440 | 138.86211 | 38744 ft | 525 kts | 23° |
| 2026-04-18 12:56 | 38.64480 | 138.88742 | 38366 ft | 523 kts | 23° |
| 2026-04-18 12:57 | 38.67534 | 138.91287 | 37852 ft | 523 kts | 23° |
| 2026-04-18 12:57 | 38.70594 | 138.93835 | 37341 ft | 522 kts | 23° |
| 2026-04-18 12:57 | 38.73587 | 138.96341 | 37113 ft | 514 kts | 22° |
| 2026-04-18 12:58 | 38.79551 | 139.01329 | 37111 ft | 512 kts | 22° |
| 2026-04-18 12:58 | 38.85481 | 139.06287 | 37113 ft | 512 kts | 22° |
| 2026-04-18 12:59 | 38.91433 | 139.11282 | 36730 ft | 511 kts | 22° |
| 2026-04-18 12:59 | 38.94454 | 139.13814 | 35790 ft | 521 kts | 22° |
| 2026-04-18 12:59 | 38.97475 | 139.16342 | 34902 ft | 533 kts | 22° |
| 2026-04-18 12:59 | 39.00582 | 139.18955 | 34155 ft | 537 kts | 22° |
| 2026-04-18 13:00 | 39.03706 | 139.21591 | 33566 ft | 536 kts | 23° |
| 2026-04-18 13:00 | 39.06811 | 139.24225 | 33133 ft | 530 kts | 23° |
| 2026-04-18 13:00 | 39.09855 | 139.26808 | 32744 ft | 523 kts | 23° |
| 2026-04-18 13:00 | 39.12855 | 139.29356 | 32375 ft | 516 kts | 23° |
| 2026-04-18 13:01 | 39.15837 | 139.31888 | 32003 ft | 510 kts | 23° |
| 2026-04-18 13:01 | 39.18808 | 139.34409 | 31600 ft | 505 kts | 22° |
| 2026-04-18 13:01 | 39.21702 | 139.36862 | 31191 ft | 500 kts | 23° |
| 2026-04-18 13:01 | 39.24607 | 139.39329 | 30809 ft | 495 kts | 22° |
| 2026-04-18 13:02 | 39.27416 | 139.41717 | 30474 ft | 489 kts | 22° |
| 2026-04-18 13:02 | 39.30250 | 139.44128 | 30096 ft | 484 kts | 23° |
| 2026-04-18 13:02 | 39.33026 | 139.46493 | 29708 ft | 479 kts | 23° |
| 2026-04-18 13:02 | 39.35786 | 139.48845 | 29296 ft | 473 kts | 23° |
| 2026-04-18 13:03 | 39.38534 | 139.51189 | 28916 ft | 468 kts | 23° |
| 2026-04-18 13:03 | 39.43914 | 139.55786 | 28156 ft | 458 kts | 23° |
| 2026-04-18 13:03 | 39.46534 | 139.58028 | 27737 ft | 454 kts | 23° |
| 2026-04-18 13:04 | 39.49156 | 139.60274 | 27308 ft | 450 kts | 23° |
| 2026-04-18 13:04 | 39.51729 | 139.62477 | 26944 ft | 445 kts | 24° |
| 2026-04-18 13:04 | 39.54301 | 139.64685 | 26582 ft | 439 kts | 24° |
| 2026-04-18 13:04 | 39.56842 | 139.66869 | 26156 ft | 435 kts | 24° |
| 2026-04-18 13:05 | 39.59329 | 139.69005 | 25741 ft | 431 kts | 25° |
| 2026-04-18 13:05 | 39.61811 | 139.71143 | 25352 ft | 426 kts | 25° |
| 2026-04-18 13:05 | 39.64262 | 139.73253 | 24948 ft | 421 kts | 25° |
| 2026-04-18 13:05 | 39.66667 | 139.75326 | 24556 ft | 416 kts | 25° |
| 2026-04-18 13:06 | 39.69060 | 139.77390 | 24161 ft | 412 kts | 25° |
| 2026-04-18 13:06 | 39.71447 | 139.79450 | 23739 ft | 408 kts | 25° |
| 2026-04-18 13:06 | 39.73766 | 139.81453 | 23309 ft | 404 kts | 25° |
| 2026-04-18 13:06 | 39.76086 | 139.83462 | 22892 ft | 400 kts | 25° |
| 2026-04-18 13:07 | 39.78390 | 139.85457 | 22462 ft | 396 kts | 25° |
| 2026-04-18 13:07 | 39.80669 | 139.87431 | 22010 ft | 393 kts | 25° |
| 2026-04-18 13:07 | 39.82942 | 139.89414 | 21536 ft | 392 kts | 25° |
| 2026-04-18 13:07 | 39.85171 | 139.91370 | 21099 ft | 389 kts | 25° |
| 2026-04-18 13:08 | 39.87390 | 139.93324 | 20682 ft | 385 kts | 25° |
| 2026-04-18 13:08 | 39.89620 | 139.95290 | 20267 ft | 382 kts | 25° |
| 2026-04-18 13:08 | 39.91800 | 139.97209 | 19847 ft | 379 kts | 25° |
| 2026-04-18 13:08 | 39.93980 | 139.99130 | 19400 ft | 376 kts | 25° |
| 2026-04-18 13:09 | 39.96119 | 140.01013 | 18945 ft | 375 kts | 25° |
| 2026-04-18 13:09 | 39.98262 | 140.02904 | 18519 ft | 372 kts | 25° |
| 2026-04-18 13:09 | 39.99041 | 140.03592 | 18363 ft | 371 kts | 25° |
| 2026-04-18 13:10 | 40.00468 | 140.04851 | 18069 ft | 370 kts | 25° |
| 2026-04-18 13:10 | 40.02588 | 140.06722 | 17655 ft | 367 kts | 25° |
| 2026-04-18 13:10 | 40.04714 | 140.08600 | 17217 ft | 365 kts | 25° |
| 2026-04-18 13:11 | 40.06807 | 140.10451 | 16725 ft | 365 kts | 25° |
| 2026-04-18 13:11 | 40.08911 | 140.12311 | 16290 ft | 363 kts | 25° |
| 2026-04-18 13:11 | 40.10984 | 140.14149 | 15903 ft | 360 kts | 25° |
| 2026-04-18 13:11 | 40.13055 | 140.15985 | 15530 ft | 357 kts | 25° |
| 2026-04-18 13:12 | 40.15083 | 140.17787 | 15198 ft | 354 kts | 25° |
| 2026-04-18 13:12 | 40.17115 | 140.19591 | 14831 ft | 352 kts | 24° |
| 2026-04-18 13:12 | 40.19134 | 140.21385 | 14493 ft | 348 kts | 24° |
| 2026-04-18 13:12 | 40.21133 | 140.23163 | 14149 ft | 346 kts | 25° |
| 2026-04-18 13:13 | 40.23090 | 140.24902 | 13823 ft | 343 kts | 25° |
| 2026-04-18 13:13 | 40.25050 | 140.26648 | 13479 ft | 341 kts | 24° |
| 2026-04-18 13:13 | 40.27003 | 140.28386 | 13140 ft | 339 kts | 24° |
| 2026-04-18 13:13 | 40.28971 | 140.30139 | 12792 ft | 337 kts | 25° |
| 2026-04-18 13:14 | 40.30888 | 140.31850 | 12471 ft | 335 kts | 25° |
| 2026-04-18 13:14 | 40.32806 | 140.33563 | 12143 ft | 333 kts | 25° |
| 2026-04-18 13:14 | 40.34725 | 140.35274 | 11809 ft | 331 kts | 25° |
| 2026-04-18 13:14 | 40.36627 | 140.36975 | 11490 ft | 330 kts | 25° |
| 2026-04-18 13:15 | 40.38505 | 140.38657 | 11165 ft | 328 kts | 25° |
| 2026-04-18 13:15 | 40.40371 | 140.40326 | 10851 ft | 326 kts | 25° |
| 2026-04-18 13:15 | 40.42259 | 140.42018 | 10543 ft | 325 kts | 25° |
| 2026-04-18 13:15 | 40.44117 | 140.43681 | 10212 ft | 324 kts | 25° |
| 2026-04-18 13:16 | 40.45969 | 140.45346 | 10034 ft | 318 kts | 25° |
| 2026-04-18 13:16 | 40.47758 | 140.46964 | 10013 ft | 306 kts | 25° |
| 2026-04-18 13:16 | 40.49488 | 140.48526 | 9995 ft | 294 kts | 25° |
| 2026-04-18 13:16 | 40.51149 | 140.50021 | 9766 ft | 292 kts | 25° |
| 2026-04-18 13:17 | 40.52840 | 140.51535 | 9495 ft | 291 kts | 25° |
| 2026-04-18 13:17 | 40.54488 | 140.53014 | 9243 ft | 290 kts | 25° |
| 2026-04-18 13:17 | 40.56155 | 140.54511 | 8981 ft | 289 kts | 25° |
| 2026-04-18 13:17 | 40.57808 | 140.56000 | 8722 ft | 287 kts | 25° |
| 2026-04-18 13:18 | 40.59436 | 140.57465 | 8472 ft | 286 kts | 25° |
| 2026-04-18 13:18 | 40.61094 | 140.58960 | 8205 ft | 285 kts | 25° |
| 2026-04-18 13:18 | 40.62748 | 140.60452 | 7953 ft | 284 kts | 25° |
| 2026-04-18 13:18 | 40.64352 | 140.61903 | 7702 ft | 283 kts | 24° |
| 2026-04-18 13:19 | 40.65971 | 140.63367 | 7445 ft | 282 kts | 25° |
| 2026-04-18 13:19 | 40.66339 | 140.63698 | 7381 ft | 282 kts | 25° |
| 2026-04-18 13:19 | 40.67899 | 140.65108 | 7144 ft | 281 kts | 26° |
| 2026-04-18 13:19 | 40.69525 | 140.66582 | 6896 ft | 280 kts | 25° |
| 2026-04-18 13:20 | 40.71125 | 140.68031 | 6646 ft | 279 kts | 25° |
| 2026-04-18 13:20 | 40.72711 | 140.69469 | 6397 ft | 277 kts | 25° |
| 2026-04-18 13:20 | 40.74291 | 140.70905 | 6146 ft | 277 kts | 26° |
| 2026-04-18 13:20 | 40.75864 | 140.72374 | 5900 ft | 277 kts | 27° |
| 2026-04-18 13:21 | 40.77428 | 140.73863 | 5657 ft | 276 kts | 27° |
| 2026-04-18 13:21 | 40.78995 | 140.75356 | 5411 ft | 276 kts | 27° |
| 2026-04-18 13:21 | 40.80541 | 140.76827 | 5171 ft | 275 kts | 27° |
| 2026-04-18 13:21 | 40.82099 | 140.78304 | 4931 ft | 275 kts | 27° |
| 2026-04-18 13:22 | 40.83656 | 140.79784 | 4747 ft | 271 kts | 27° |
| 2026-04-18 13:22 | 40.85135 | 140.81200 | 4745 ft | 261 kts | 27° |
| 2026-04-18 13:22 | 40.86578 | 140.82575 | 4710 ft | 251 kts | 27° |
| 2026-04-18 13:22 | 40.87985 | 140.83914 | 4676 ft | 244 kts | 26° |
| 2026-04-18 13:23 | 40.89342 | 140.85208 | 4639 ft | 234 kts | 26° |
| 2026-04-18 13:23 | 40.90600 | 140.86497 | 4567 ft | 232 kts | 39° |
| 2026-04-18 13:23 | 40.91348 | 140.88446 | 4338 ft | 248 kts | 83° |
| 2026-04-18 13:23 | 40.91080 | 140.90645 | 4110 ft | 241 kts | 126° |
| 2026-04-18 13:24 | 40.89993 | 140.92116 | 3906 ft | 215 kts | 163° |
| 2026-04-18 13:24 | 40.88628 | 140.92567 | 3694 ft | 188 kts | 196° |
| 2026-04-18 13:24 | 40.87513 | 140.92055 | 3501 ft | 162 kts | 224° |
| 2026-04-18 13:24 | 40.86684 | 140.91116 | 3440 ft | 155 kts | 235° |
| 2026-04-18 13:25 | 40.85987 | 140.90051 | 3446 ft | 154 kts | 239° |
| 2026-04-18 13:25 | 40.85314 | 140.88922 | 3425 ft | 156 kts | 240° |
| 2026-04-18 13:25 | 40.85096 | 140.88550 | 3434 ft | 157 kts | 238° |
| 2026-04-18 13:25 | 40.83969 | 140.86655 | 3445 ft | 155 kts | 239° |
| 2026-04-18 13:26 | 40.83298 | 140.85532 | 3434 ft | 156 kts | 239° |
| 2026-04-18 13:26 | 40.82620 | 140.84399 | 3325 ft | 155 kts | 239° |
| 2026-04-18 13:26 | 40.81972 | 140.83324 | 3116 ft | 146 kts | 239° |
| 2026-04-18 13:26 | 40.81356 | 140.82300 | 2910 ft | 137 kts | 238° |
| 2026-04-18 13:27 | 40.80775 | 140.81326 | 2751 ft | 136 kts | 237° |
| 2026-04-18 13:27 | 40.80189 | 140.80344 | 2588 ft | 136 kts | 237° |
| 2026-04-18 13:27 | 40.79597 | 140.79353 | 2405 ft | 137 kts | 236° |
| 2026-04-18 13:27 | 40.79007 | 140.78368 | 2225 ft | 137 kts | 236° |
| 2026-04-18 13:28 | 40.78420 | 140.77387 | 2049 ft | 136 kts | 234° |
| 2026-04-18 13:28 | 40.77828 | 140.76396 | 1857 ft | 136 kts | 234° |
| 2026-04-18 13:28 | 40.77249 | 140.75427 | 1676 ft | 136 kts | 233° |
| 2026-04-18 13:28 | 40.76667 | 140.74440 | 1464 ft | 135 kts | 233° |
| 2026-04-18 13:29 | 40.76099 | 140.73468 | 1276 ft | 134 kts | 231° |
| 2026-04-18 13:29 | 40.75496 | 140.72504 | 1138 ft | 135 kts | 232° |
| 2026-04-18 13:29 | 40.74931 | 140.71529 | 948 ft | 134 kts | 231° |
| 2026-04-18 13:29 | 40.74352 | 140.70554 | 1139 ft | 135 kts | 232° |
| 2026-04-18 13:30 | 40.73803 | 140.69630 | 1936 ft | 133 kts | 234° |
| 2026-04-18 13:30 | 40.73239 | 140.68692 | 2557 ft | 131 kts | 236° |
| 2026-04-18 13:30 | 40.72648 | 140.67760 | 2845 ft | 139 kts | 236° |
| 2026-04-18 13:30 | 40.72274 | 140.66592 | 3078 ft | 146 kts | 273° |
| 2026-04-18 13:31 | 40.72758 | 140.65369 | 3318 ft | 168 kts | 313° |
| 2026-04-18 13:31 | 40.73923 | 140.64870 | 3629 ft | 197 kts | 352° |
| 2026-04-18 13:31 | 40.75286 | 140.65501 | 3906 ft | 221 kts | 29° |
| 2026-04-18 13:31 | 40.76263 | 140.67140 | 3956 ft | 235 kts | 59° |
| 2026-04-18 13:32 | 40.77063 | 140.68983 | 3954 ft | 227 kts | 40° |
| 2026-04-18 13:32 | 40.78314 | 140.70113 | 3957 ft | 215 kts | 17° |
| 2026-04-18 13:32 | 40.79666 | 140.70935 | 3957 ft | 217 kts | 20° |
| 2026-04-18 13:32 | 40.80913 | 140.72160 | 3951 ft | 221 kts | 26° |
| 2026-04-18 13:33 | 40.82252 | 140.72920 | 3952 ft | 208 kts | 5° |
| 2026-04-18 13:33 | 40.83659 | 140.73355 | 3955 ft | 206 kts | 1° |
| 2026-04-18 13:33 | 40.85075 | 140.73782 | 3947 ft | 211 kts | 8° |
| 2026-04-18 13:33 | 40.86311 | 140.74922 | 3916 ft | 232 kts | 49° |
| 2026-04-18 13:34 | 40.87064 | 140.76817 | 3942 ft | 232 kts | 55° |
| 2026-04-18 13:34 | 40.88081 | 140.78291 | 3922 ft | 211 kts | 25° |
| 2026-04-18 13:34 | 40.89308 | 140.79404 | 3945 ft | 212 kts | 26° |
| 2026-04-18 13:34 | 40.90323 | 140.80853 | 3913 ft | 225 kts | 59° |
| 2026-04-18 13:35 | 40.90615 | 140.82877 | 3727 ft | 227 kts | 98° |
| 2026-04-18 13:35 | 40.90028 | 140.84758 | 3463 ft | 216 kts | 140° |
| 2026-04-18 13:35 | 40.88969 | 140.86041 | 3430 ft | 210 kts | 151° |
| 2026-04-18 13:35 | 40.88745 | 140.86273 | 3429 ft | 210 kts | 152° |
| 2026-04-18 13:36 | 40.88595 | 140.86426 | 3433 ft | 209 kts | 152° |
| 2026-04-18 13:36 | 40.87449 | 140.87563 | 3415 ft | 207 kts | 153° |
| 2026-04-18 13:36 | 40.86233 | 140.88470 | 3413 ft | 192 kts | 180° |
| 2026-04-18 13:36 | 40.85009 | 140.88286 | 3432 ft | 168 kts | 219° |
| 2026-04-18 13:37 | 40.84187 | 140.87283 | 3472 ft | 158 kts | 238° |
| 2026-04-18 13:37 | 40.83548 | 140.86121 | 3436 ft | 156 kts | 241° |
| 2026-04-18 13:37 | 40.82917 | 140.84949 | 3420 ft | 158 kts | 241° |
| 2026-04-18 13:37 | 40.82265 | 140.83794 | 3236 ft | 155 kts | 239° |
| 2026-04-18 13:38 | 40.81618 | 140.82697 | 3015 ft | 146 kts | 238° |
| 2026-04-18 13:38 | 40.81013 | 140.81689 | 2813 ft | 138 kts | 238° |
| 2026-04-18 13:38 | 40.80421 | 140.80705 | 2640 ft | 137 kts | 237° |
| 2026-04-18 13:38 | 40.79824 | 140.79712 | 2467 ft | 136 kts | 236° |
| 2026-04-18 13:39 | 40.79241 | 140.78742 | 2292 ft | 136 kts | 235° |
| 2026-04-18 13:39 | 40.78647 | 140.77754 | 2115 ft | 136 kts | 234° |
| 2026-04-18 13:39 | 40.78056 | 140.76769 | 1931 ft | 136 kts | 234° |
| 2026-04-18 13:39 | 40.77472 | 140.75794 | 1747 ft | 136 kts | 234° |
| 2026-04-18 13:40 | 40.76894 | 140.74808 | 1561 ft | 135 kts | 233° |
| 2026-04-18 13:40 | 40.76305 | 140.73851 | 1378 ft | 135 kts | 231° |
| 2026-04-18 13:40 | 40.75724 | 140.72885 | 1215 ft | 134 kts | 233° |
| 2026-04-18 13:40 | 40.75167 | 140.71898 | 1046 ft | 134 kts | 231° |
| 2026-04-18 13:41 | 40.74570 | 140.70943 | 837 ft | 133 kts | 231° |
| 2026-04-18 13:41 | 40.74016 | 140.70007 | 678 ft | 126 kts | 231° |
| 2026-04-18 13:41 | 40.73533 | 140.69206 | 666 ft | 89 kts | 231° |
| 2026-04-18 13:41 | 40.73261 | 140.68749 | 658 ft | 43 kts | 234° |
| 2026-04-18 13:42 | 40.73148 | 140.68547 | 659 ft | 13 kts | 252° |
| 2026-04-18 13:42 | 40.73162 | 140.68469 | 657 ft | 10 kts | 312° |
| 2026-04-18 13:42 | 40.73226 | 140.68407 | 653 ft | 12 kts | 341° |
| 2026-04-18 13:42 | 40.73299 | 140.68460 | 651 ft | 15 kts | 51° |
| 2026-04-18 13:43 | 40.73381 | 140.68596 | 651 ft | 22 kts | 52° |
| 2026-04-18 13:43 | 40.73481 | 140.68764 | 655 ft | 22 kts | 52° |
| 2026-04-18 13:43 | 40.73575 | 140.68922 | 657 ft | 21 kts | 52° |
| 2026-04-18 13:43 | 40.73600 | 140.68965 | 658 ft | 1 kts | 52° |
| 2026-04-18 13:44 | 40.73614 | 140.68988 | 658 ft | 4 kts | 52° |
| 2026-04-18 13:44 | 40.73618 | 140.68994 | 658 ft | 0 kts | 50° |
| 2026-04-18 13:44 | 40.73621 | 140.68999 | 658 ft | 2 kts | 50° |
| 2026-04-18 13:44 | 40.73642 | 140.69031 | 659 ft | 7 kts | 50° |
| 2026-04-18 13:45 | 40.73683 | 140.69104 | 659 ft | 12 kts | 54° |
| 2026-04-18 13:45 | 40.73730 | 140.69180 | 658 ft | 6 kts | 41° |
| 2026-04-18 13:45 | 40.73782 | 140.69167 | 656 ft | 9 kts | 323° |
| 2026-04-18 13:45 | 40.73830 | 140.69115 | 654 ft | 7 kts | 320° |
| 2026-04-18 13:46 | 40.73845 | 140.69101 | 654 ft | 1 kts | 323° |
| 2026-04-18 13:46 | 40.73845 | 140.69099 | 654 ft | 0 kts | 323° |